Time;durP1;ratioP1;P1;durP2;ratioP2;P2;SDS_P1;SDS_P2;PMS_P1;PMS_P2;Temp;Humidity;BMP_temperature;BMP_pressure;BME280_temperature;BME280_humidity;BME280_pressure;Samples;Min_cycle;Max_cycle;Signal;HPM_P1;HPM_P2
2023/03/14 00:06:21;;;;;;;70.78;3.03;;;5.50;99.90;;;;;;20913101;28;20052;-55
2023/03/14 00:16:23;;;;;;;92.22;9.15;;;5.60;99.90;;;;;;20911845;28;20029;-53
2023/03/14 00:26:25;;;;;;;205.68;16.40;;;5.60;99.90;;;;;;20912133;28;20036;-46
2023/03/14 00:36:27;;;;;;;1030.72;45.70;;;5.70;99.90;;;;;;20910477;28;20087;-53
2023/03/14 00:46:29;;;;;;;765.85;33.13;;;5.80;99.90;;;;;;20909602;28;20032;-54
2023/03/14 00:56:31;;;;;;;77.10;14.93;;;5.80;99.90;;;;;;20904514;28;20169;-49
2023/03/14 01:06:32;;;;;;;27.95;10.52;;;5.70;99.90;;;;;;20907916;28;20237;-48
2023/03/14 01:16:36;;;;;;;15.30;8.32;;;5.70;99.90;;;;;;20907530;28;20033;-51
2023/03/14 01:26:37;;;;;;;23.80;8.80;;;5.80;99.90;;;;;;20905840;28;20105;-53
2023/03/14 01:36:41;;;;;;;149.18;13.27;;;5.80;99.90;;;;;;20888300;28;20041;-50
2023/03/14 01:46:47;;;;;;;48.60;10.70;;;5.80;99.90;;;;;;20904003;28;20433;-51
2023/03/14 01:57:06;;;;;;;20.08;9.73;;;5.80;99.90;;;;;;20904738;28;20025;-46
2023/03/14 02:07:15;;;;;;;137.75;15.63;;;5.70;99.90;;;;;;20902706;28;20102;-46
2023/03/14 02:17:24;;;;;;;277.77;20.85;;;5.70;99.90;;;;;;20902400;28;20483;-49
2023/03/14 02:27:38;;;;;;;433.65;29.25;;;5.60;99.90;;;;;;20902014;28;20036;-44
2023/03/14 02:37:46;;;;;;;368.95;27.02;;;5.60;99.90;;;;;;20909591;28;20103;-50
2023/03/14 02:48:02;;;;;;;63.70;12.90;;;5.70;99.90;;;;;;20920256;28;20083;-45
2023/03/14 02:58:06;;;;;;;540.42;34.75;;;5.70;99.90;;;;;;20916914;28;20032;-47
2023/03/14 03:08:09;;;;;;;41.88;12.70;;;5.70;99.90;;;;;;20916057;28;20460;-45
2023/03/14 03:18:12;;;;;;;111.38;16.25;;;5.70;99.90;;;;;;20916496;28;20386;-52
2023/03/14 03:28:13;;;;;;;421.45;33.47;;;5.80;99.90;;;;;;20898163;28;20464;-46
2023/03/14 03:38:15;;;;;;;181.77;20.48;;;5.80;99.90;;;;;;20913749;28;20036;-49
2023/03/14 03:48:19;;;;;;;131.52;16.73;;;5.80;99.90;;;;;;20912695;28;20044;-51
2023/03/14 03:58:20;;;;;;;91.95;17.38;;;5.80;99.90;;;;;;20912100;28;20674;-47
2023/03/14 04:08:22;;;;;;;26.20;12.10;;;5.80;99.90;;;;;;20913595;28;20049;-45
2023/03/14 04:18:24;;;;;;;39.75;13.82;;;5.90;99.90;;;;;;20910703;28;20267;-50
2023/03/14 04:28:27;;;;;;;16.98;9.55;;;5.90;99.90;;;;;;20912460;28;20075;-49
2023/03/14 04:38:29;;;;;;;17.15;9.10;;;5.90;99.90;;;;;;20909296;28;20036;-49
2023/03/14 04:48:31;;;;;;;13.70;8.70;;;5.80;99.90;;;;;;20908494;28;20429;-44
2023/03/14 04:58:34;;;;;;;18.98;9.35;;;5.80;99.90;;;;;;20907741;28;20037;-51
2023/03/14 05:08:37;;;;;;;20.08;8.85;;;5.80;99.90;;;;;;20906931;28;20121;-45
2023/03/14 05:18:58;;;;;;;575.28;30.48;;;5.80;99.90;;;;;;20906639;28;20041;-53
2023/03/14 05:29:06;;;;;;;594.30;31.30;;;5.70;99.90;;;;;;20906450;28;20029;-53
2023/03/14 05:39:27;;;;;;;321.80;20.48;;;5.60;99.90;;;;;;20813554;28;20057;-49
2023/03/14 05:49:42;;;;;;;24.95;11.43;;;5.50;99.90;;;;;;20797179;28;20187;-49
2023/03/14 06:00:07;;;;;;;440.17;25.50;;;5.60;99.90;;;;;;20812230;28;20041;-50
2023/03/14 06:10:21;;;;;;;368.60;20.55;;;5.50;99.90;;;;;;20820863;28;20057;-48
2023/03/14 06:20:23;;;;;;;597.97;28.83;;;5.40;99.90;;;;;;20902150;28;20090;-46
2023/03/14 06:30:25;;;;;;;679.72;33.47;;;5.30;99.90;;;;;;20901908;28;20548;-53
2023/03/14 06:40:28;;;;;;;342.30;18.92;;;5.20;99.90;;;;;;20901426;28;20405;-48
2023/03/14 06:50:39;;;;;;;483.10;24.40;;;5.10;99.90;;;;;;20901117;28;20091;-49
2023/03/14 07:00:42;;;;;;;1077.63;40.50;;;5.10;99.90;;;;;;20900873;28;20564;-48
2023/03/14 07:10:44;;;;;;;801.75;34.80;;;5.10;99.90;;;;;;20900276;28;20126;-47
2023/03/14 07:20:46;;;;;;;944.28;33.70;;;5.10;99.90;;;;;;20901578;28;20025;-50
2023/03/14 07:30:50;;;;;;;922.33;34.65;;;5.10;99.90;;;;;;20916544;28;20029;-50
2023/03/14 07:41:05;;;;;;;16.75;4.07;;;5.10;99.90;;;;;;20913708;28;20087;-52
2023/03/14 07:51:10;;;;;;;444.52;16.30;;;5.10;99.90;;;;;;20914087;28;20090;-48
2023/03/14 08:01:12;;;;;;;798.42;28.77;;;5.20;99.90;;;;;;20914211;28;20090;-52
2023/03/14 08:11:15;;;;;;;690.55;25.08;;;5.20;99.90;;;;;;20913175;28;20053;-49
2023/03/14 08:21:16;;;;;;;154.07;8.80;;;5.30;99.90;;;;;;20911759;28;20033;-51
2023/03/14 08:31:18;;;;;;;16.35;3.00;;;5.60;99.90;;;;;;20911961;28;20040;-49
2023/03/14 08:41:20;;;;;;;842.30;32.50;;;5.80;99.90;;;;;;20910099;28;20043;-47
2023/03/14 08:51:21;;;;;;;671.30;24.85;;;6.00;99.90;;;;;;20909786;28;20029;-48
2023/03/14 09:01:25;;;;;;;2.60;1.40;;;6.20;99.90;;;;;;20908901;28;20482;-47
2023/03/14 09:11:26;;;;;;;198.95;7.32;;;7.20;99.90;;;;;;20908815;28;20057;-49
2023/03/14 09:21:28;;;;;;;212.82;9.38;;;7.80;99.90;;;;;;20906137;28;20059;-49
2023/03/14 09:31:30;;;;;;;1714.28;60.65;;;7.40;99.90;;;;;;20906628;28;20044;-51
2023/03/14 09:41:35;;;;;;;5.93;2.28;;;7.20;99.90;;;;;;20905601;28;20029;-51
2023/03/14 09:51:37;;;;;;;2.78;1.90;;;8.50;99.90;;;;;;20904771;28;20028;-46
2023/03/14 10:01:39;;;;;;;3.42;1.27;;;10.00;99.90;;;;;;20904809;28;20429;-50
2023/03/14 10:11:40;;;;;;;3.17;1.50;;;11.70;99.90;;;;;;20903999;28;20060;-48
2023/03/14 10:21:52;;;;;;;3.83;2.25;;;12.50;99.90;;;;;;20903651;28;20033;-50
2023/03/14 10:32:01;;;;;;;2.30;1.73;;;11.00;99.90;;;;;;20903323;28;20554;-50
2023/03/14 10:42:12;;;;;;;42.67;4.80;;;11.50;99.90;;;;;;20904045;28;20033;-49
2023/03/14 10:52:22;;;;;;;4.32;3.28;;;11.20;99.90;;;;;;20902780;28;20029;-53
2023/03/14 11:02:29;;;;;;;3.92;2.83;;;11.20;99.90;;;;;;20911599;28;20041;-47
2023/03/14 11:12:46;;;;;;;2.90;2.10;;;11.80;99.90;;;;;;20917602;28;20045;-48
2023/03/14 11:23:07;;;;;;;117.28;6.68;;;12.30;99.90;;;;;;20916810;28;20542;-49
2023/03/14 11:33:23;;;;;;;4.70;2.70;;;12.60;99.90;;;;;;20916401;28;20470;-51
2023/03/14 11:43:42;;;;;;;0.98;0.38;;;11.30;99.90;;;;;;20915410;28;20044;-52
2023/03/14 11:54:14;;;;;;;3.80;1.77;;;11.60;99.90;;;;;;20914445;28;20535;-50
2023/03/14 12:04:33;;;;;;;0.73;0.20;;;12.20;99.90;;;;;;20913912;28;20037;-49
2023/03/14 12:14:37;;;;;;;3.60;2.60;;;12.40;99.90;;;;;;20912433;28;20460;-48
2023/03/14 12:24:47;;;;;;;137.25;7.65;;;12.10;99.90;;;;;;20910655;28;20040;-57
2023/03/14 12:34:48;;;;;;;5.43;3.10;;;11.50;99.90;;;;;;20912447;28;20033;-56
2023/03/14 12:44:51;;;;;;;68.43;5.22;;;10.90;99.90;;;;;;20910381;28;20033;-55
2023/03/14 12:55:50;;;;;;;78.75;4.85;;;11.10;99.90;;;;;;20909619;28;20031;-53
2023/03/14 13:06:00;;;;;;;3.35;2.17;;;11.30;99.90;;;;;;20718488;28;20527;-51
2023/03/14 13:16:03;;;;;;;3.53;2.30;;;11.00;99.90;;;;;;20734537;28;20064;-51
2023/03/14 13:26:15;;;;;;;4.63;2.60;;;11.60;99.90;;;;;;20733037;28;20050;-50
2023/03/14 13:36:21;;;;;;;4.88;2.60;;;11.90;99.90;;;;;;20879308;28;20053;-52
2023/03/14 13:46:25;;;;;;;4.68;3.10;;;12.10;99.90;;;;;;20905691;28;20037;-50
2023/03/14 13:56:28;;;;;;;5.97;2.92;;;11.30;99.90;;;;;;20905785;28;20028;-52
2023/03/14 14:06:38;;;;;;;5.75;4.20;;;11.00;99.90;;;;;;20904171;28;20103;-55
2023/03/14 14:16:42;;;;;;;116.90;10.03;;;9.70;99.90;;;;;;20904242;28;20114;-46
2023/03/14 14:26:50;;;;;;;6.32;5.15;;;9.00;99.90;;;;;;20903439;28;20482;-54
2023/03/14 14:36:52;;;;;;;9.00;7.05;;;8.70;99.90;;;;;;20915577;28;20562;-52
2023/03/14 14:46:56;;;;;;;5.88;5.10;;;8.40;99.90;;;;;;20919469;28;20174;-53
2023/03/14 14:57:02;;;;;;;8.50;6.10;;;8.10;99.90;;;;;;20917619;28;20062;-54
2023/03/14 15:07:04;;;;;;;6.50;5.10;;;8.70;99.90;;;;;;20914904;28;20033;-50
2023/03/14 15:17:10;;;;;;;11.10;6.50;;;9.00;99.90;;;;;;20917347;28;20095;-55
2023/03/14 15:27:17;;;;;;;734.17;35.22;;;8.80;99.90;;;;;;20917099;28;20029;-55
2023/03/14 15:37:18;;;;;;;519.60;26.45;;;8.10;99.90;;;;;;20913064;28;20033;-46
2023/03/14 15:47:20;;;;;;;722.20;36.25;;;7.40;99.90;;;;;;20913616;28;20029;-54
2023/03/14 15:57:21;;;;;;;528.58;26.95;;;7.00;99.90;;;;;;20914574;28;20040;-54
2023/03/14 16:07:23;;;;;;;1172.32;50.78;;;6.70;99.90;;;;;;20913152;28;20044;-50
2023/03/14 16:17:25;;;;;;;108.45;14.00;;;6.40;99.90;;;;;;20914188;28;20520;-47
2023/03/14 16:27:27;;;;;;;1089.05;49.53;;;6.40;99.90;;;;;;20911946;28;20433;-54
2023/03/14 16:37:28;;;;;;;32.30;15.93;;;6.30;99.90;;;;;;20909495;28;20033;-49
2023/03/14 16:47:30;;;;;;;457.80;24.77;;;6.30;99.90;;;;;;20910528;28;20102;-47
2023/03/14 16:57:32;;;;;;;860.67;36.08;;;6.30;99.90;;;;;;20909390;28;20037;-45
2023/03/14 17:07:34;;;;;;;1381.40;48.45;;;6.30;99.90;;;;;;20908433;28;20045;-51
2023/03/14 17:17:35;;;;;;;656.97;26.63;;;6.20;99.90;;;;;;20909372;28;20090;-50
2023/03/14 17:27:37;;;;;;;1043.78;41.63;;;6.10;99.90;;;;;;20907651;28;20028;-50
2023/03/14 17:37:39;;;;;;;764.78;31.95;;;6.00;99.90;;;;;;20906553;28;20033;-49
2023/03/14 17:47:41;;;;;;;154.45;12.95;;;6.00;99.90;;;;;;20906109;28;20037;-54
2023/03/14 17:57:43;;;;;;;242.63;17.50;;;5.90;99.90;;;;;;20905218;28;20037;-54
2023/03/14 18:07:45;;;;;;;52.47;9.63;;;5.90;99.90;;;;;;20903907;28;20045;-52
2023/03/14 18:17:47;;;;;;;322.13;19.92;;;6.00;99.90;;;;;;20904161;28;20041;-53
2023/03/14 18:27:48;;;;;;;249.75;18.50;;;5.90;99.90;;;;;;20902340;28;20102;-47
2023/03/14 18:37:50;;;;;;;153.13;24.38;;;5.90;99.90;;;;;;20903081;28;20025;-51
2023/03/14 18:47:52;;;;;;;45.28;23.27;;;5.80;99.90;;;;;;20902797;28;20029;-49
2023/03/14 18:57:53;;;;;;;27.77;18.40;;;5.80;99.90;;;;;;20902688;28;20506;-51
2023/03/14 19:07:58;;;;;;;761.92;37.50;;;5.80;99.90;;;;;;20901738;28;20138;-47
2023/03/14 19:18:00;;;;;;;14.50;8.95;;;5.90;99.90;;;;;;20904360;28;20033;-47
2023/03/14 19:28:01;;;;;;;10.25;6.32;;;5.50;99.90;;;;;;20913433;28;20086;-56
2023/03/14 19:38:04;;;;;;;8.48;5.78;;;5.40;99.90;;;;;;20916099;28;20036;-51
2023/03/14 19:48:06;;;;;;;1.77;1.10;;;5.20;99.90;;;;;;20915159;28;20036;-47
2023/03/14 19:58:07;;;;;;;2.33;0.57;;;4.70;99.90;;;;;;20914526;28;20091;-55
2023/03/14 20:08:10;;;;;;;0.55;0.30;;;4.20;99.90;;;;;;20912147;28;20124;-54
2023/03/14 20:18:11;;;;;;;0.77;0.40;;;3.90;99.90;;;;;;20912718;28;20607;-47
2023/03/14 20:28:13;;;;;;;0.47;0.20;;;4.00;99.90;;;;;;20911331;28;20037;-54
2023/03/14 20:38:15;;;;;;;0.15;0.10;;;4.10;99.90;;;;;;20911751;28;20029;-51
2023/03/14 20:48:16;;;;;;;0.10;0.10;;;4.00;99.90;;;;;;20910319;28;20056;-54
2023/03/14 20:58:18;;;;;;;0.20;0.10;;;3.60;99.90;;;;;;20924171;28;20545;-50
2023/03/14 21:08:23;;;;;;;0.50;0.10;;;3.30;99.90;;;;;;20907430;28;20036;-48
2023/03/14 21:18:24;;;;;;;0.00;0.00;;;3.10;99.90;;;;;;20908148;28;20041;-50
2023/03/14 21:28:27;;;;;;;0.13;0.00;;;3.20;99.90;;;;;;20906447;28;20421;-45
2023/03/14 21:38:29;;;;;;;0.10;0.00;;;3.30;99.90;;;;;;20907119;28;20029;-45
2023/03/14 21:48:30;;;;;;;0.03;0.00;;;3.60;99.90;;;;;;20906345;28;20048;-49
2023/03/14 21:58:34;;;;;;;0.10;0.00;;;3.60;99.90;;;;;;20905077;28;20064;-45
2023/03/14 22:08:36;;;;;;;0.20;0.10;;;3.40;99.90;;;;;;20904346;28;20045;-44
2023/03/14 22:18:38;;;;;;;0.13;0.00;;;3.50;99.90;;;;;;20904953;28;20033;-49
2023/03/14 22:28:39;;;;;;;0.10;0.00;;;3.60;99.90;;;;;;20903583;28;20048;-51
2023/03/14 22:38:41;;;;;;;0.05;0.00;;;3.50;99.90;;;;;;20903225;28;20063;-50
2023/03/14 22:48:43;;;;;;;0.30;0.00;;;3.60;99.90;;;;;;20901648;28;20082;-51
2023/03/14 22:58:44;;;;;;;0.40;0.10;;;3.50;99.90;;;;;;20914501;28;20106;-49
2023/03/14 23:08:46;;;;;;;0.40;0.10;;;3.40;99.90;;;;;;20916420;28;20116;-48
2023/03/14 23:18:47;;;;;;;0.03;0.03;;;3.40;99.90;;;;;;20917287;28;20078;-54
2023/03/14 23:28:53;;;;;;;0.32;0.00;;;3.40;99.90;;;;;;20916654;28;20116;-52
2023/03/14 23:38:54;;;;;;;0.13;0.10;;;3.60;99.90;;;;;;20915976;28;20442;-52
2023/03/14 23:48:57;;;;;;;0.00;0.00;;;3.20;99.90;;;;;;20915346;28;20036;-51
2023/03/14 23:58:58;;;;;;;0.00;0.00;;;3.10;99.90;;;;;;20914379;28;20032;-46
